sensor_id;sensor_type;location;lat;lon;timestamp;pressure;altitude;pressure_sealevel;temperature;humidity
53526;BME280;40551;50.478;19.378;2023-05-25T00:00:51;98406.14;;;12.03;80.21
53526;BME280;40551;50.478;19.378;2023-05-25T00:03:39;98406.38;;;12.02;80.34
53526;BME280;40551;50.478;19.378;2023-05-25T00:06:18;98411.69;;;12.01;80.36
53526;BME280;40551;50.478;19.378;2023-05-25T00:08:51;98410.60;;;12.00;80.43
53526;BME280;40551;50.478;19.378;2023-05-25T00:11:47;98408.84;;;11.98;80.40
53526;BME280;40551;50.478;19.378;2023-05-25T00:14:22;98410.39;;;11.98;80.68
53526;BME280;40551;50.478;19.378;2023-05-25T00:16:52;98408.72;;;11.97;80.58
53526;BME280;40551;50.478;19.378;2023-05-25T00:19:24;98414.04;;;11.92;80.70
53526;BME280;40551;50.478;19.378;2023-05-25T00:21:56;98418.16;;;11.92;80.59
53526;BME280;40551;50.478;19.378;2023-05-25T00:24:31;98419.48;;;11.93;80.80
53526;BME280;40551;50.478;19.378;2023-05-25T00:27:03;98419.80;;;11.93;80.82
53526;BME280;40551;50.478;19.378;2023-05-25T00:29:36;98422.56;;;11.94;80.68
53526;BME280;40551;50.478;19.378;2023-05-25T00:32:10;98422.70;;;11.92;80.69
53526;BME280;40551;50.478;19.378;2023-05-25T00:34:42;98420.80;;;11.90;80.72
53526;BME280;40551;50.478;19.378;2023-05-25T00:37:14;98419.05;;;11.88;80.83
53526;BME280;40551;50.478;19.378;2023-05-25T00:39:46;98415.69;;;11.87;80.78
53526;BME280;40551;50.478;19.378;2023-05-25T00:42:17;98415.95;;;11.86;80.90
53526;BME280;40551;50.478;19.378;2023-05-25T00:44:49;98414.93;;;11.85;80.83
53526;BME280;40551;50.478;19.378;2023-05-25T00:47:21;98413.87;;;11.83;80.79
53526;BME280;40551;50.478;19.378;2023-05-25T00:49:53;98409.73;;;11.81;81.01
53526;BME280;40551;50.478;19.378;2023-05-25T00:52:25;98413.21;;;11.79;81.01
53526;BME280;40551;50.478;19.378;2023-05-25T00:55:02;98419.59;;;11.77;81.12
53526;BME280;40551;50.478;19.378;2023-05-25T00:57:35;98416.31;;;11.76;81.20
53526;BME280;40551;50.478;19.378;2023-05-25T01:00:10;98417.27;;;11.78;81.11
53526;BME280;40551;50.478;19.378;2023-05-25T01:02:43;98423.66;;;11.78;81.21
53526;BME280;40551;50.478;19.378;2023-05-25T01:05:16;98423.84;;;11.76;81.01
53526;BME280;40551;50.478;19.378;2023-05-25T01:07:49;98425.00;;;11.72;81.08
53526;BME280;40551;50.478;19.378;2023-05-25T01:10:25;98427.54;;;11.71;81.03
53526;BME280;40551;50.478;19.378;2023-05-25T01:12:59;98428.11;;;11.71;81.21
53526;BME280;40551;50.478;19.378;2023-05-25T01:15:33;98429.77;;;11.69;81.26
53526;BME280;40551;50.478;19.378;2023-05-25T01:18:05;98430.85;;;11.67;81.14
53526;BME280;40551;50.478;19.378;2023-05-25T01:23:09;98426.89;;;11.67;81.50
53526;BME280;40551;50.478;19.378;2023-05-25T01:25:46;98425.41;;;11.62;81.50
53526;BME280;40551;50.478;19.378;2023-05-25T01:28:27;98430.78;;;11.62;81.59
53526;BME280;40551;50.478;19.378;2023-05-25T01:31:00;98430.25;;;11.62;81.68
53526;BME280;40551;50.478;19.378;2023-05-25T01:33:33;98431.35;;;11.61;81.62
53526;BME280;40551;50.478;19.378;2023-05-25T01:36:06;98429.65;;;11.61;81.62
53526;BME280;40551;50.478;19.378;2023-05-25T01:41:25;98423.87;;;11.61;81.80
53526;BME280;40551;50.478;19.378;2023-05-25T01:43:57;98422.13;;;11.61;81.81
53526;BME280;40551;50.478;19.378;2023-05-25T01:46:35;98426.38;;;11.63;81.98
53526;BME280;40551;50.478;19.378;2023-05-25T01:49:15;98423.95;;;11.62;81.82
53526;BME280;40551;50.478;19.378;2023-05-25T01:51:55;98427.46;;;11.62;81.85
53526;BME280;40551;50.478;19.378;2023-05-25T01:54:32;98426.55;;;11.62;81.84
53526;BME280;40551;50.478;19.378;2023-05-25T01:57:09;98426.67;;;11.63;81.96
53526;BME280;40551;50.478;19.378;2023-05-25T01:59:43;98422.78;;;11.66;81.84
53526;BME280;40551;50.478;19.378;2023-05-25T02:02:17;98415.97;;;11.68;82.00
53526;BME280;40551;50.478;19.378;2023-05-25T02:04:50;98405.46;;;11.71;81.98
53526;BME280;40551;50.478;19.378;2023-05-25T02:07:25;98403.16;;;11.74;81.71
53526;BME280;40551;50.478;19.378;2023-05-25T02:09:57;98404.59;;;11.75;81.90
53526;BME280;40551;50.478;19.378;2023-05-25T02:12:29;98404.26;;;11.76;81.62
53526;BME280;40551;50.478;19.378;2023-05-25T02:15:01;98404.58;;;11.76;81.79
53526;BME280;40551;50.478;19.378;2023-05-25T02:17:33;98404.98;;;11.75;81.88
53526;BME280;40551;50.478;19.378;2023-05-25T02:20:10;98405.70;;;11.77;81.89
53526;BME280;40551;50.478;19.378;2023-05-25T02:22:42;98410.88;;;11.80;81.95
53526;BME280;40551;50.478;19.378;2023-05-25T02:25:13;98410.91;;;11.81;81.92
53526;BME280;40551;50.478;19.378;2023-05-25T02:27:45;98406.59;;;11.81;81.75
53526;BME280;40551;50.478;19.378;2023-05-25T02:30:17;98412.44;;;11.81;81.99
53526;BME280;40551;50.478;19.378;2023-05-25T02:32:49;98415.61;;;11.81;81.82
53526;BME280;40551;50.478;19.378;2023-05-25T02:35:21;98411.73;;;11.82;81.92
53526;BME280;40551;50.478;19.378;2023-05-25T02:37:53;98411.91;;;11.82;81.84
53526;BME280;40551;50.478;19.378;2023-05-25T02:40:25;98418.18;;;11.80;81.50
53526;BME280;40551;50.478;19.378;2023-05-25T02:42:57;98419.47;;;11.79;81.58
53526;BME280;40551;50.478;19.378;2023-05-25T02:45:28;98415.45;;;11.76;81.51
53526;BME280;40551;50.478;19.378;2023-05-25T02:48:00;98417.23;;;11.76;81.66
53526;BME280;40551;50.478;19.378;2023-05-25T02:50:33;98418.56;;;11.75;81.48
53526;BME280;40551;50.478;19.378;2023-05-25T02:53:07;98417.19;;;11.75;81.58
53526;BME280;40551;50.478;19.378;2023-05-25T02:55:40;98419.59;;;11.75;81.67
53526;BME280;40551;50.478;19.378;2023-05-25T02:58:17;98418.45;;;11.72;81.50
53526;BME280;40551;50.478;19.378;2023-05-25T03:01:09;98411.16;;;11.68;81.55
53526;BME280;40551;50.478;19.378;2023-05-25T03:03:52;98412.02;;;11.64;81.68
53526;BME280;40551;50.478;19.378;2023-05-25T03:06:25;98413.89;;;11.60;81.67
53526;BME280;40551;50.478;19.378;2023-05-25T03:08:59;98417.27;;;11.57;81.68
53526;BME280;40551;50.478;19.378;2023-05-25T03:11:34;98416.71;;;11.55;81.77
53526;BME280;40551;50.478;19.378;2023-05-25T03:14:06;98411.96;;;11.54;81.84
53526;BME280;40551;50.478;19.378;2023-05-25T03:16:38;98410.44;;;11.51;81.87
53526;BME280;40551;50.478;19.378;2023-05-25T03:19:09;98408.67;;;11.50;82.10
53526;BME280;40551;50.478;19.378;2023-05-25T03:21:41;98409.86;;;11.50;82.34
53526;BME280;40551;50.478;19.378;2023-05-25T03:24:13;98409.05;;;11.51;82.29
53526;BME280;40551;50.478;19.378;2023-05-25T03:26:46;98412.55;;;11.51;82.09
53526;BME280;40551;50.478;19.378;2023-05-25T03:29:18;98414.57;;;11.50;82.07
53526;BME280;40551;50.478;19.378;2023-05-25T03:31:51;98418.34;;;11.48;82.24
53526;BME280;40551;50.478;19.378;2023-05-25T03:34:24;98419.48;;;11.47;82.26
53526;BME280;40551;50.478;19.378;2023-05-25T03:36:57;98415.84;;;11.45;82.25
53526;BME280;40551;50.478;19.378;2023-05-25T03:39:29;98418.48;;;11.44;82.24
53526;BME280;40551;50.478;19.378;2023-05-25T03:42:01;98425.67;;;11.46;82.32
53526;BME280;40551;50.478;19.378;2023-05-25T03:44:33;98422.60;;;11.45;82.30
53526;BME280;40551;50.478;19.378;2023-05-25T03:47:05;98422.38;;;11.46;82.29
53526;BME280;40551;50.478;19.378;2023-05-25T03:49:37;98424.91;;;11.47;82.38
53526;BME280;40551;50.478;19.378;2023-05-25T03:52:09;98424.23;;;11.48;82.67
53526;BME280;40551;50.478;19.378;2023-05-25T03:54:40;98425.54;;;11.49;82.28
53526;BME280;40551;50.478;19.378;2023-05-25T03:57:12;98431.42;;;11.52;82.53
53526;BME280;40551;50.478;19.378;2023-05-25T03:59:44;98434.45;;;11.53;82.33
53526;BME280;40551;50.478;19.378;2023-05-25T04:02:16;98433.70;;;11.56;82.43
53526;BME280;40551;50.478;19.378;2023-05-25T04:04:48;98437.95;;;11.59;82.27
53526;BME280;40551;50.478;19.378;2023-05-25T04:07:21;98438.70;;;11.61;82.16
53526;BME280;40551;50.478;19.378;2023-05-25T04:09:54;98434.00;;;11.61;82.23
53526;BME280;40551;50.478;19.378;2023-05-25T04:12:27;98434.36;;;11.63;82.16
53526;BME280;40551;50.478;19.378;2023-05-25T04:14:59;98431.15;;;11.66;82.22
53526;BME280;40551;50.478;19.378;2023-05-25T04:17:33;98431.48;;;11.66;82.24
53526;BME280;40551;50.478;19.378;2023-05-25T04:20:10;98437.83;;;11.67;82.24
53526;BME280;40551;50.478;19.378;2023-05-25T04:22:42;98443.15;;;11.67;82.11
53526;BME280;40551;50.478;19.378;2023-05-25T04:25:14;98441.87;;;11.68;82.17
53526;BME280;40551;50.478;19.378;2023-05-25T04:27:49;98449.73;;;11.70;81.95
53526;BME280;40551;50.478;19.378;2023-05-25T04:30:38;98449.70;;;11.68;82.01
53526;BME280;40551;50.478;19.378;2023-05-25T04:33:22;98451.29;;;11.66;82.00
53526;BME280;40551;50.478;19.378;2023-05-25T04:36:05;98454.77;;;11.64;81.91
53526;BME280;40551;50.478;19.378;2023-05-25T04:38:38;98453.48;;;11.65;81.93
53526;BME280;40551;50.478;19.378;2023-05-25T04:41:10;98454.98;;;11.65;82.04
53526;BME280;40551;50.478;19.378;2023-05-25T04:43:45;98454.55;;;11.66;82.07
53526;BME280;40551;50.478;19.378;2023-05-25T04:46:35;98457.14;;;11.67;82.09
53526;BME280;40551;50.478;19.378;2023-05-25T04:49:08;98457.73;;;11.62;82.18
53526;BME280;40551;50.478;19.378;2023-05-25T04:51:42;98461.60;;;11.61;82.18
53526;BME280;40551;50.478;19.378;2023-05-25T04:54:12;98464.45;;;11.60;82.31
53526;BME280;40551;50.478;19.378;2023-05-25T04:56:44;98464.63;;;11.54;82.26
53526;BME280;40551;50.478;19.378;2023-05-25T04:59:16;98463.42;;;11.53;82.17
53526;BME280;40551;50.478;19.378;2023-05-25T05:01:47;98467.14;;;11.53;82.32
53526;BME280;40551;50.478;19.378;2023-05-25T05:04:20;98471.80;;;11.55;82.41
53526;BME280;40551;50.478;19.378;2023-05-25T05:06:52;98473.07;;;11.57;82.43
53526;BME280;40551;50.478;19.378;2023-05-25T05:09:29;98476.37;;;11.59;82.49
53526;BME280;40551;50.478;19.378;2023-05-25T05:12:03;98477.12;;;11.63;82.53
53526;BME280;40551;50.478;19.378;2023-05-25T05:14:39;98478.21;;;11.64;82.43
53526;BME280;40551;50.478;19.378;2023-05-25T05:17:12;98481.24;;;11.67;82.73
53526;BME280;40551;50.478;19.378;2023-05-25T05:19:44;98485.55;;;11.72;82.43
53526;BME280;40551;50.478;19.378;2023-05-25T05:22:16;98484.48;;;11.74;82.20
53526;BME280;40551;50.478;19.378;2023-05-25T05:24:48;98488.73;;;11.75;82.21
53526;BME280;40551;50.478;19.378;2023-05-25T05:27:27;98489.30;;;11.74;82.11
53526;BME280;40551;50.478;19.378;2023-05-25T05:30:16;98492.35;;;11.73;82.21
53526;BME280;40551;50.478;19.378;2023-05-25T05:32:48;98491.83;;;11.75;82.26
53526;BME280;40551;50.478;19.378;2023-05-25T05:35:21;98492.64;;;11.76;82.15
53526;BME280;40551;50.478;19.378;2023-05-25T05:37:54;98492.20;;;11.77;82.11
53526;BME280;40551;50.478;19.378;2023-05-25T05:40:26;98491.92;;;11.76;81.93
53526;BME280;40551;50.478;19.378;2023-05-25T05:42:58;98491.53;;;11.75;81.93
53526;BME280;40551;50.478;19.378;2023-05-25T05:45:30;98491.84;;;11.76;81.89
53526;BME280;40551;50.478;19.378;2023-05-25T05:48:02;98489.23;;;11.78;81.93
53526;BME280;40551;50.478;19.378;2023-05-25T05:50:36;98490.88;;;11.79;82.15
53526;BME280;40551;50.478;19.378;2023-05-25T05:53:13;98491.92;;;11.81;81.98
53526;BME280;40551;50.478;19.378;2023-05-25T05:55:48;98500.50;;;11.82;82.10
53526;BME280;40551;50.478;19.378;2023-05-25T05:58:26;98502.20;;;11.85;82.19
53526;BME280;40551;50.478;19.378;2023-05-25T06:00:59;98508.60;;;11.83;81.98
53526;BME280;40551;50.478;19.378;2023-05-25T06:03:33;98511.46;;;11.82;82.05
53526;BME280;40551;50.478;19.378;2023-05-25T06:06:05;98514.83;;;11.84;82.02
53526;BME280;40551;50.478;19.378;2023-05-25T06:08:37;98517.34;;;11.83;81.99
53526;BME280;40551;50.478;19.378;2023-05-25T06:11:10;98519.88;;;11.86;82.19
53526;BME280;40551;50.478;19.378;2023-05-25T06:13:43;98526.13;;;11.90;82.40
53526;BME280;40551;50.478;19.378;2023-05-25T06:16:16;98527.93;;;11.93;82.41
53526;BME280;40551;50.478;19.378;2023-05-25T06:18:48;98530.39;;;11.95;82.20
53526;BME280;40551;50.478;19.378;2023-05-25T06:21:20;98527.88;;;11.96;82.09
53526;BME280;40551;50.478;19.378;2023-05-25T06:23:53;98532.70;;;11.99;82.16
53526;BME280;40551;50.478;19.378;2023-05-25T06:26:27;98530.76;;;11.99;82.04
53526;BME280;40551;50.478;19.378;2023-05-25T06:28:58;98532.96;;;12.02;82.31
53526;BME280;40551;50.478;19.378;2023-05-25T06:31:30;98535.89;;;12.05;82.12
53526;BME280;40551;50.478;19.378;2023-05-25T06:34:02;98535.77;;;12.06;82.07
53526;BME280;40551;50.478;19.378;2023-05-25T06:36:34;98540.10;;;12.10;82.15
53526;BME280;40551;50.478;19.378;2023-05-25T06:39:06;98537.45;;;12.13;81.95
53526;BME280;40551;50.478;19.378;2023-05-25T06:41:42;98539.23;;;12.14;81.83
53526;BME280;40551;50.478;19.378;2023-05-25T06:44:16;98538.35;;;12.16;81.81
53526;BME280;40551;50.478;19.378;2023-05-25T06:46:53;98538.23;;;12.16;81.59
53526;BME280;40551;50.478;19.378;2023-05-25T06:49:27;98539.14;;;12.15;81.66
53526;BME280;40551;50.478;19.378;2023-05-25T06:51:59;98538.96;;;12.17;81.86
53526;BME280;40551;50.478;19.378;2023-05-25T06:54:31;98536.96;;;12.18;81.61
53526;BME280;40551;50.478;19.378;2023-05-25T06:57:04;98532.10;;;12.19;81.49
53526;BME280;40551;50.478;19.378;2023-05-25T06:59:36;98532.09;;;12.19;81.78
53526;BME280;40551;50.478;19.378;2023-05-25T07:02:07;98531.66;;;12.22;81.80
53526;BME280;40551;50.478;19.378;2023-05-25T07:04:39;98532.36;;;12.24;81.81
53526;BME280;40551;50.478;19.378;2023-05-25T07:07:13;98534.83;;;12.26;81.63
53526;BME280;40551;50.478;19.378;2023-05-25T07:09:45;98539.55;;;12.25;81.55
53526;BME280;40551;50.478;19.378;2023-05-25T07:12:17;98539.23;;;12.27;81.73
53526;BME280;40551;50.478;19.378;2023-05-25T07:14:50;98544.79;;;12.29;81.70
53526;BME280;40551;50.478;19.378;2023-05-25T07:17:22;98549.93;;;12.30;81.58
53526;BME280;40551;50.478;19.378;2023-05-25T07:19:53;98550.62;;;12.30;81.55
53526;BME280;40551;50.478;19.378;2023-05-25T07:22:25;98553.00;;;12.33;81.70
53526;BME280;40551;50.478;19.378;2023-05-25T07:24:57;98553.95;;;12.38;81.72
53526;BME280;40551;50.478;19.378;2023-05-25T07:27:30;98551.67;;;12.38;81.39
53526;BME280;40551;50.478;19.378;2023-05-25T07:30:03;98554.91;;;12.37;81.09
53526;BME280;40551;50.478;19.378;2023-05-25T07:32:47;98559.58;;;12.35;81.33
53526;BME280;40551;50.478;19.378;2023-05-25T07:35:19;98561.17;;;12.35;81.51
53526;BME280;40551;50.478;19.378;2023-05-25T07:37:57;98561.04;;;12.35;81.20
53526;BME280;40551;50.478;19.378;2023-05-25T07:40:29;98560.78;;;12.35;81.32
53526;BME280;40551;50.478;19.378;2023-05-25T07:43:02;98564.57;;;12.40;81.49
53526;BME280;40551;50.478;19.378;2023-05-25T07:45:37;98563.71;;;12.44;81.61
53526;BME280;40551;50.478;19.378;2023-05-25T07:48:09;98558.96;;;12.49;81.53
53526;BME280;40551;50.478;19.378;2023-05-25T07:50:41;98562.25;;;12.53;81.51
53526;BME280;40551;50.478;19.378;2023-05-25T07:53:13;98562.09;;;12.59;81.45
53526;BME280;40551;50.478;19.378;2023-05-25T07:55:45;98566.90;;;12.64;81.42
53526;BME280;40551;50.478;19.378;2023-05-25T07:58:17;98570.44;;;12.65;81.21
53526;BME280;40551;50.478;19.378;2023-05-25T08:00:49;98568.55;;;12.67;80.95
53526;BME280;40551;50.478;19.378;2023-05-25T08:03:21;98572.45;;;12.68;80.94
53526;BME280;40551;50.478;19.378;2023-05-25T08:06:05;98574.39;;;12.70;81.03
53526;BME280;40551;50.478;19.378;2023-05-25T08:08:37;98573.77;;;12.71;80.92
53526;BME280;40551;50.478;19.378;2023-05-25T08:11:09;98574.88;;;12.73;80.82
53526;BME280;40551;50.478;19.378;2023-05-25T08:13:41;98571.38;;;12.73;80.65
53526;BME280;40551;50.478;19.378;2023-05-25T08:16:13;98570.77;;;12.74;80.79
53526;BME280;40551;50.478;19.378;2023-05-25T08:18:47;98564.38;;;12.75;80.89
53526;BME280;40551;50.478;19.378;2023-05-25T08:21:19;98563.15;;;12.75;80.82
53526;BME280;40551;50.478;19.378;2023-05-25T08:23:51;98565.41;;;12.79;80.94
53526;BME280;40551;50.478;19.378;2023-05-25T08:26:23;98561.80;;;12.83;80.98
53526;BME280;40551;50.478;19.378;2023-05-25T08:29:13;98561.98;;;12.87;80.91
53526;BME280;40551;50.478;19.378;2023-05-25T08:31:45;98561.64;;;12.85;81.02
53526;BME280;40551;50.478;19.378;2023-05-25T08:34:19;98561.27;;;12.91;80.81
53526;BME280;40551;50.478;19.378;2023-05-25T08:36:50;98564.48;;;12.92;80.47
53526;BME280;40551;50.478;19.378;2023-05-25T08:39:22;98563.98;;;12.92;80.42
53526;BME280;40551;50.478;19.378;2023-05-25T08:41:54;98565.79;;;12.93;80.65
53526;BME280;40551;50.478;19.378;2023-05-25T08:44:26;98564.98;;;12.96;80.69
53526;BME280;40551;50.478;19.378;2023-05-25T08:47:05;98569.27;;;13.01;80.83
53526;BME280;40551;50.478;19.378;2023-05-25T08:49:38;98571.45;;;13.04;80.39
53526;BME280;40551;50.478;19.378;2023-05-25T08:52:13;98569.33;;;13.06;80.52
53526;BME280;40551;50.478;19.378;2023-05-25T08:54:47;98572.58;;;13.11;80.61
53526;BME280;40551;50.478;19.378;2023-05-25T08:57:24;98573.95;;;13.16;80.13
53526;BME280;40551;50.478;19.378;2023-05-25T09:00:03;98577.10;;;13.21;80.36
53526;BME280;40551;50.478;19.378;2023-05-25T09:02:44;98574.48;;;13.30;80.46
53526;BME280;40551;50.478;19.378;2023-05-25T09:05:18;98571.58;;;13.31;79.83
53526;BME280;40551;50.478;19.378;2023-05-25T09:07:50;98571.60;;;13.33;79.93
53526;BME280;40551;50.478;19.378;2023-05-25T09:10:24;98568.42;;;13.33;79.78
53526;BME280;40551;50.478;19.378;2023-05-25T09:12:59;98565.94;;;13.38;79.79
53526;BME280;40551;50.478;19.378;2023-05-25T09:15:49;98570.10;;;13.46;79.73
53526;BME280;40551;50.478;19.378;2023-05-25T09:18:21;98571.02;;;13.53;79.92
53526;BME280;40551;50.478;19.378;2023-05-25T09:20:53;98569.58;;;13.64;79.48
53526;BME280;40551;50.478;19.378;2023-05-25T09:23:25;98576.39;;;13.71;79.12
53526;BME280;40551;50.478;19.378;2023-05-25T09:25:57;98580.22;;;13.75;78.78
53526;BME280;40551;50.478;19.378;2023-05-25T09:28:29;98576.98;;;13.74;78.50
53526;BME280;40551;50.478;19.378;2023-05-25T09:31:01;98575.98;;;13.76;78.52
53526;BME280;40551;50.478;19.378;2023-05-25T09:33:34;98579.60;;;13.78;78.36
53526;BME280;40551;50.478;19.378;2023-05-25T09:36:14;98583.34;;;13.81;78.42
53526;BME280;40551;50.478;19.378;2023-05-25T09:38:47;98585.73;;;13.84;78.39
53526;BME280;40551;50.478;19.378;2023-05-25T09:41:20;98586.42;;;13.86;78.21
53526;BME280;40551;50.478;19.378;2023-05-25T09:43:52;98584.74;;;13.87;78.02
53526;BME280;40551;50.478;19.378;2023-05-25T09:46:40;98583.20;;;13.90;78.20
53526;BME280;40551;50.478;19.378;2023-05-25T09:49:14;98580.55;;;13.97;78.34
53526;BME280;40551;50.478;19.378;2023-05-25T09:51:47;98580.73;;;14.02;78.11
53526;BME280;40551;50.478;19.378;2023-05-25T09:54:21;98582.01;;;14.06;78.17
53526;BME280;40551;50.478;19.378;2023-05-25T09:56:53;98583.50;;;14.09;77.79
53526;BME280;40551;50.478;19.378;2023-05-25T09:59:25;98584.48;;;14.09;77.58
53526;BME280;40551;50.478;19.378;2023-05-25T10:01:58;98587.56;;;14.12;77.66
53526;BME280;40551;50.478;19.378;2023-05-25T10:04:30;98587.13;;;14.15;77.57
53526;BME280;40551;50.478;19.378;2023-05-25T10:07:03;98587.29;;;14.17;77.64
53526;BME280;40551;50.478;19.378;2023-05-25T10:09:37;98585.05;;;14.18;77.46
53526;BME280;40551;50.478;19.378;2023-05-25T10:12:10;98589.17;;;14.23;77.48
53526;BME280;40551;50.478;19.378;2023-05-25T10:14:43;98592.52;;;14.26;77.19
53526;BME280;40551;50.478;19.378;2023-05-25T10:17:21;98592.95;;;14.30;77.12
53526;BME280;40551;50.478;19.378;2023-05-25T10:19:57;98593.70;;;14.32;76.66
53526;BME280;40551;50.478;19.378;2023-05-25T10:22:34;98591.88;;;14.35;76.65
53526;BME280;40551;50.478;19.378;2023-05-25T10:25:11;98591.98;;;14.38;76.59
53526;BME280;40551;50.478;19.378;2023-05-25T10:27:50;98592.73;;;14.43;76.54
53526;BME280;40551;50.478;19.378;2023-05-25T10:30:27;98593.77;;;14.47;76.59
53526;BME280;40551;50.478;19.378;2023-05-25T10:32:59;98592.64;;;14.50;76.01
53526;BME280;40551;50.478;19.378;2023-05-25T10:35:33;98591.58;;;14.54;76.13
53526;BME280;40551;50.478;19.378;2023-05-25T10:38:20;98589.89;;;14.61;76.15
53526;BME280;40551;50.478;19.378;2023-05-25T10:40:53;98587.53;;;14.64;75.77
53526;BME280;40551;50.478;19.378;2023-05-25T10:43:25;98586.31;;;14.68;75.80
53526;BME280;40551;50.478;19.378;2023-05-25T10:45:57;98587.26;;;14.74;75.75
53526;BME280;40551;50.478;19.378;2023-05-25T10:48:37;98587.61;;;14.83;75.85
53526;BME280;40551;50.478;19.378;2023-05-25T10:51:09;98586.25;;;14.87;75.35
53526;BME280;40551;50.478;19.378;2023-05-25T10:53:45;98586.45;;;14.90;75.51
53526;BME280;40551;50.478;19.378;2023-05-25T10:56:17;98584.23;;;14.96;75.58
53526;BME280;40551;50.478;19.378;2023-05-25T10:58:48;98583.67;;;14.99;75.39
53526;BME280;40551;50.478;19.378;2023-05-25T11:01:20;98582.59;;;15.05;75.30
53526;BME280;40551;50.478;19.378;2023-05-25T11:04:14;98579.67;;;15.12;75.06
53526;BME280;40551;50.478;19.378;2023-05-25T11:07:13;98577.02;;;15.18;74.96
53526;BME280;40551;50.478;19.378;2023-05-25T11:09:56;98575.17;;;15.24;74.97
53526;BME280;40551;50.478;19.378;2023-05-25T11:12:28;98576.41;;;15.28;74.69
53526;BME280;40551;50.478;19.378;2023-05-25T11:15:14;98579.45;;;15.32;74.61
53526;BME280;40551;50.478;19.378;2023-05-25T11:17:56;98580.10;;;15.35;74.33
53526;BME280;40551;50.478;19.378;2023-05-25T11:20:29;98577.42;;;15.36;74.41
53526;BME280;40551;50.478;19.378;2023-05-25T11:23:24;98581.35;;;15.39;74.64
53526;BME280;40551;50.478;19.378;2023-05-25T11:26:04;98577.39;;;15.41;74.56
53526;BME280;40551;50.478;19.378;2023-05-25T11:28:45;98576.71;;;15.45;74.63
53526;BME280;40551;50.478;19.378;2023-05-25T11:31:20;98573.55;;;15.45;74.56
53526;BME280;40551;50.478;19.378;2023-05-25T11:34:08;98572.52;;;15.48;74.40
53526;BME280;40551;50.478;19.378;2023-05-25T11:36:42;98571.13;;;15.50;74.47
53526;BME280;40551;50.478;19.378;2023-05-25T11:39:14;98569.76;;;15.55;74.55
53526;BME280;40551;50.478;19.378;2023-05-25T11:41:55;98568.05;;;15.60;74.44
53526;BME280;40551;50.478;19.378;2023-05-25T11:44:29;98564.95;;;15.65;74.45
53526;BME280;40551;50.478;19.378;2023-05-25T11:47:06;98563.90;;;15.71;74.60
53526;BME280;40551;50.478;19.378;2023-05-25T11:49:41;98562.75;;;15.75;74.20
53526;BME280;40551;50.478;19.378;2023-05-25T11:52:16;98555.94;;;15.77;73.68
53526;BME280;40551;50.478;19.378;2023-05-25T11:54:48;98554.13;;;15.76;73.61
53526;BME280;40551;50.478;19.378;2023-05-25T11:57:23;98555.05;;;15.81;73.69
53526;BME280;40551;50.478;19.378;2023-05-25T11:59:56;98553.66;;;15.83;73.54
53526;BME280;40551;50.478;19.378;2023-05-25T12:02:37;98549.70;;;15.89;73.92
53526;BME280;40551;50.478;19.378;2023-05-25T12:05:09;98554.77;;;15.98;73.82
53526;BME280;40551;50.478;19.378;2023-05-25T12:07:44;98556.79;;;16.06;73.54
53526;BME280;40551;50.478;19.378;2023-05-25T12:10:17;98554.34;;;16.11;72.91
53526;BME280;40551;50.478;19.378;2023-05-25T12:12:50;98543.13;;;16.13;72.83
53526;BME280;40551;50.478;19.378;2023-05-25T12:15:27;98540.75;;;16.14;72.43
53526;BME280;40551;50.478;19.378;2023-05-25T12:17:59;98538.33;;;16.17;72.73
53526;BME280;40551;50.478;19.378;2023-05-25T12:20:31;98542.13;;;16.19;72.82
53526;BME280;40551;50.478;19.378;2023-05-25T12:23:03;98544.38;;;16.25;73.19
53526;BME280;40551;50.478;19.378;2023-05-25T12:25:35;98543.94;;;16.31;72.96
53526;BME280;40551;50.478;19.378;2023-05-25T12:28:20;98547.23;;;16.35;72.89
53526;BME280;40551;50.478;19.378;2023-05-25T12:30:51;98550.89;;;16.36;72.50
53526;BME280;40551;50.478;19.378;2023-05-25T12:33:23;98550.31;;;16.32;72.15
53526;BME280;40551;50.478;19.378;2023-05-25T12:35:55;98552.21;;;16.30;72.57
53526;BME280;40551;50.478;19.378;2023-05-25T12:38:26;98555.29;;;16.35;72.65
53526;BME280;40551;50.478;19.378;2023-05-25T12:41:08;98554.58;;;16.36;72.22
53526;BME280;40551;50.478;19.378;2023-05-25T12:43:40;98552.65;;;16.31;71.77
53526;BME280;40551;50.478;19.378;2023-05-25T12:48:55;98547.02;;;16.26;72.22
53526;BME280;40551;50.478;19.378;2023-05-25T12:51:38;98546.56;;;16.29;72.38
53526;BME280;40551;50.478;19.378;2023-05-25T12:54:09;98546.24;;;16.31;72.55
53526;BME280;40551;50.478;19.378;2023-05-25T12:56:57;98544.09;;;16.29;72.36
53526;BME280;40551;50.478;19.378;2023-05-25T12:59:29;98540.45;;;16.28;72.47
53526;BME280;40551;50.478;19.378;2023-05-25T13:02:02;98542.23;;;16.29;72.85
53526;BME280;40551;50.478;19.378;2023-05-25T13:04:35;98540.48;;;16.30;72.63
53526;BME280;40551;50.478;19.378;2023-05-25T13:07:08;98540.77;;;16.33;72.53
53526;BME280;40551;50.478;19.378;2023-05-25T13:09:40;98536.25;;;16.34;72.62
53526;BME280;40551;50.478;19.378;2023-05-25T13:12:12;98540.17;;;16.37;72.72
53526;BME280;40551;50.478;19.378;2023-05-25T13:14:46;98540.72;;;16.42;72.62
53526;BME280;40551;50.478;19.378;2023-05-25T13:17:18;98539.52;;;16.43;72.32
53526;BME280;40551;50.478;19.378;2023-05-25T13:19:50;98540.92;;;16.41;71.85
53526;BME280;40551;50.478;19.378;2023-05-25T13:22:24;98536.26;;;16.36;71.47
53526;BME280;40551;50.478;19.378;2023-05-25T13:24:56;98535.77;;;16.27;71.27
53526;BME280;40551;50.478;19.378;2023-05-25T13:27:28;98531.25;;;16.17;71.47
53526;BME280;40551;50.478;19.378;2023-05-25T13:30:00;98530.48;;;16.16;71.79
53526;BME280;40551;50.478;19.378;2023-05-25T13:32:32;98528.34;;;16.14;71.36
53526;BME280;40551;50.478;19.378;2023-05-25T13:35:04;98528.04;;;16.08;71.40